Latest Weather Observations for Beaudesert AWS

IDQ60801

Issued at 7:32 pm EST Friday 16 November 2018 (issued every 10 minutes, with the page automatically refreshed every 10 minutes)

About weather observations | Map of weather stations | Latest weather observations for QLD | Other Formats
Station Details ID: 040983 Name: BEAUDESERT DRUMLEY STREET Lat: -27.97 Lon: 152.99 Height: 47.81 m
Data from the previous 72 hours. | See also: Recent months at Beaudesert AWS
Date/Time
EST
Temp
°C
App
Temp
°C
Dew
Point
°C
Rel
Hum
%
Delta-T
°C
Wind Press
QNH
hPa
Press
MSL
hPa
Rain since
9am
mm
Dir  Spd
km/h
Gust
km/h
Spd
kts
Gust
kts
16/07:30pm 22.8 24.4 16.8 69 3.7 ENE 4 7 2 4 1015.4 1015.2 0.0
16/07:00pm 23.4 24.4 16.4 64 4.3 ENE 6 9 3 5 1014.8 1014.6 0.0
16/06:30pm 23.9 24.8 16.2 62 4.7 E 6 9 3 5 1014.7 1014.5 0.0
16/06:00pm 25.1 24.7 16.3 58 5.4 ENE 13 24 7 13 1014.1 1013.9 0.0
16/05:30pm 26.1 25.4 16.4 55 6.0 ENE 15 24 8 13 1013.4 1013.2 0.0
16/05:00pm 27.3 27.3 17.2 54 6.3 NE 13 28 7 15 1013.2 1013.0 0.0
16/04:30pm 28.1 27.0 17.3 52 6.8 NE 19 30 10 16 1012.9 1012.7 0.0
16/04:00pm 28.7 27.6 17.2 49 7.2 ENE 19 32 10 17 1012.7 1012.5 0.0
16/03:30pm 29.5 29.9 17.3 47 7.7 NE 11 22 6 12 1012.6 1012.4 0.0
16/03:00pm 29.9 29.8 17.0 45 8.1 NNE 13 24 7 13 1012.7 1012.5 0.0
16/02:30pm 30.6 30.8 17.7 46 8.2 NNE 13 20 7 11 1013.1 1012.9 0.0
16/02:00pm 30.3 30.2 16.0 42 8.9 E 11 17 6 9 1013.4 1013.2 0.0
16/01:30pm 30.8 31.2 16.4 42 9.0 NNE 9 17 5 9 1013.8 1013.6 0.0
16/01:00pm 30.5 32.2 17.2 44 8.4 SW 4 9 2 5 1014.3 1014.1 0.0
16/12:30pm 29.3 30.6 16.1 44 8.2 SW 4 9 2 5 1014.9 1014.7 0.0
16/12:00pm 29.1 30.5 16.3 46 8.0 W 4 11 2 6 1015.5 1015.3 0.0
16/11:30am 28.3 29.4 16.6 49 7.3 WNW 6 9 3 5 1016.1 1015.9 0.0
16/11:00am 28.5 29.5 16.4 48 7.5 NE 6 13 3 7 1016.5 1016.3 0.0
16/10:30am 28.1 29.5 17.3 52 6.8 SW 6 9 3 5 1017.0 1016.8 0.0
16/10:00am 27.7 29.0 17.5 53 6.4 SW 7 13 4 7 1017.4 1017.2 0.0
16/09:30am 25.5 27.0 16.6 58 5.5 SW 4 7 2 4 1017.7 1017.5 0.0
16/09:00am 24.5 26.0 16.7 61 4.8 SW 4 6 2 3 1017.9 1017.7 0.4
16/08:30am 24.4 26.3 17.6 66 4.2 SE 4 7 2 4 1018.0 1017.8 0.4
16/08:00am 23.7 26.0 17.7 69 3.7 SE 2 6 1 3 1018.1 1017.9 0.4
16/07:30am 22.7 25.1 18.9 79 2.4 ESE 4 7 2 4 1018.1 1017.9 0.4
16/07:00am 21.0 23.4 18.8 87 1.4 ESE 4 6 2 3 1018.0 1017.8 0.4
16/06:30am 19.6 22.1 18.1 91 0.9 ESE 2 4 1 2 1017.9 1017.7 0.4
16/06:00am 18.4 21.0 17.6 95 0.5 CALM 0 0 0 0 1017.7 1017.5 0.4
16/05:30am 16.8 18.4 16.0 95 0.5 ESE 2 6 1 3 1017.7 1017.5 0.4
16/05:00am 17.2 19.5 16.7 97 0.3 CALM 0 0 0 0 1017.6 1017.4 0.4
16/04:30am 17.6 20.1 17.3 98 0.2 CALM 0 0 0 0 1017.2 1017.0 0.4
16/04:00am 17.9 20.2 17.7 99 0.1 ESE 2 4 1 2 1017.0 1016.8 0.4
16/03:30am 17.4 19.4 16.9 97 0.3 ESE 2 4 1 2 1016.8 1016.6 0.4
16/03:00am 17.4 19.6 16.4 94 0.6 CALM 0 0 0 0 1016.6 1016.4 0.4
16/02:30am 17.8 20.2 17.0 95 0.5 CALM 0 0 0 0 1016.6 1016.4 0.4
16/02:00am 18.6 21.4 17.9 96 0.4 CALM 0 0 0 0 1016.8 1016.6 0.4
16/01:30am 18.7 21.3 17.5 93 0.7 CALM 0 2 0 1 1017.0 1016.8 0.4
16/01:00am 19.3 22.2 18.1 93 0.7 CALM 0 0 0 0 1017.1 1016.9 0.4
16/12:30am 20.0 23.1 18.7 92 0.8 CALM 0 0 0 0 1017.2 1017.0 0.4
16/12:00am 20.0 22.3 18.5 91 0.9 ESE 4 9 2 5 1017.6 1017.4 0.4
 
Date/Time
EST
Temp
°C
App
Temp
°C
Dew
Point
°C
Rel
Hum
%
Delta-T
°C
Wind Press
QNH
hPa
Press
MSL
hPa
Rain since
9am
mm
Dir  Spd
km/h
Gust
km/h
Spd
kts
Gust
kts
15/11:30pm 20.8 22.8 17.8 83 1.9 E 4 6 2 3 1018.1 1017.9 0.0
15/11:00pm 20.9 23.4 17.3 80 2.2 CALM 0 4 0 2 1018.5 1018.3 0.0
15/10:30pm 21.2 22.9 17.2 78 2.5 ESE 4 6 2 3 1018.6 1018.4 0.0
15/10:00pm 21.6 22.9 17.0 75 2.8 E 6 7 3 4 1018.2 1018.0 0.0
15/09:30pm 22.2 24.1 16.7 71 3.4 ENE 2 6 1 3 1017.9 1017.7 0.0
15/09:00pm 22.4 23.9 16.7 70 3.5 NE 4 7 2 4 1017.8 1017.6 0.0
15/08:30pm 22.6 24.5 16.6 69 3.7 ENE 2 6 1 3 1017.7 1017.5 0.0
15/08:00pm 22.9 24.0 16.7 68 3.8 NE 6 9 3 5 1017.4 1017.2 0.0
15/07:30pm 23.2 24.6 16.5 66 4.1 ENE 4 9 2 5 1017.0 1016.8 0.0
15/07:00pm 23.6 24.6 16.4 64 4.4 NE 6 11 3 6 1016.7 1016.5 0.0
15/06:30pm 24.2 24.8 16.7 63 4.6 ENE 9 17 5 9 1016.1 1015.9 0.0
15/06:00pm 25.2 25.9 17.1 60 5.0 ENE 9 17 5 9 1015.6 1015.4 0.0
15/05:30pm 26.6 26.4 17.7 58 5.6 ENE 15 28 8 15 1015.1 1014.9 0.0
15/05:00pm 27.4 27.3 17.8 55 6.1 ENE 15 26 8 14 1014.7 1014.5 0.0
15/04:30pm 28.0 28.4 18.1 55 6.3 ENE 13 24 7 13 1014.4 1014.2 0.0
15/04:00pm 29.5 29.9 17.3 47 7.7 NE 11 20 6 11 1014.3 1014.1 0.0
15/03:30pm 30.5 31.4 17.6 46 8.2 NE 9 17 5 9 1014.2 1014.0 0.0
15/03:00pm 30.7 31.1 15.2 39 9.5 NW 7 11 4 6 1014.3 1014.1 0.0
15/02:30pm 30.2 29.5 15.5 41 9.1 WNW 13 22 7 12 1014.6 1014.4 0.0
15/02:00pm 30.1 30.4 14.6 39 9.4 S 6 9 3 5 1015.0 1014.8 0.0
15/01:30pm 31.5 32.0 15.0 36 10.2 S 6 13 3 7 1015.2 1015.0 0.0
15/01:00pm 30.7 31.8 15.5 39 9.4 S 4 7 2 4 1015.6 1015.4 0.0
15/12:30pm 30.2 31.3 16.6 44 8.5 S 6 11 3 6 1016.2 1016.0 0.0
15/12:00pm 29.0 29.7 15.5 44 8.3 SSE 6 13 3 7 1016.8 1016.6 0.0
15/11:30am 28.7 29.7 16.3 47 7.7 SW 6 11 3 6 1017.2 1017.0 0.0
15/11:00am 28.6 29.9 17.2 50 7.2 SW 6 13 3 7 1017.6 1017.4 0.0
15/10:30am 27.1 28.2 17.0 54 6.3 NW 7 13 4 7 1018.2 1018.0 0.0
15/10:00am 26.5 28.0 17.6 58 5.6 SSE 6 9 3 5 1018.5 1018.3 0.0
15/09:30am 25.9 28.0 18.1 62 4.9 SSE 4 7 2 4 1018.8 1018.6 0.0
15/09:00am 24.9 26.9 17.9 65 4.4 SSE 4 9 2 5 1018.9 1018.7 0.0
15/08:30am 24.2 25.6 17.4 65 4.2 SSE 6 11 3 6 1019.1 1018.9 0.0
15/08:00am 23.4 26.5 18.7 75 3.0 CALM 0 0 0 0 1019.2 1019.0 0.0
15/07:30am 22.4 25.2 18.0 76 2.7 CALM 0 0 0 0 1019.0 1018.8 0.0
15/07:00am 21.8 24.3 18.2 80 2.2 SSE 2 4 1 2 1018.7 1018.5 0.0
15/06:30am 19.7 22.2 17.3 86 1.5 CALM 0 4 0 2 1018.4 1018.2 0.0
15/06:00am 17.8 20.2 17.0 95 0.5 CALM 0 0 0 0 1018.2 1018.0 0.0
15/05:30am 15.8 17.5 15.3 97 0.3 CALM 0 0 0 0 1017.8 1017.6 0.0
15/05:00am 15.3 16.7 14.5 95 0.5 CALM 0 0 0 0 1017.5 1017.3 0.0
15/04:30am 16.2 18.0 15.6 96 0.4 CALM 0 0 0 0 1017.1 1016.9 0.0
15/04:00am 15.9 17.6 15.1 95 0.5 CALM 0 0 0 0 1016.7 1016.5 0.0
15/03:30am 16.1 17.7 15.0 93 0.6 CALM 0 0 0 0 1016.6 1016.4 0.0
15/03:00am 16.9 18.8 15.8 93 0.6 CALM 0 0 0 0 1016.6 1016.4 0.0
15/02:30am 17.4 19.5 16.3 93 0.7 CALM 0 0 0 0 1016.7 1016.5 0.0
15/02:00am 17.7 20.1 16.9 95 0.5 CALM 0 0 0 0 1016.9 1016.7 0.0
15/01:30am 17.6 19.8 16.5 93 0.7 CALM 0 0 0 0 1016.9 1016.7 0.0
15/01:00am 17.3 19.3 16.0 92 0.8 CALM 0 0 0 0 1017.1 1016.9 0.0
15/12:30am 17.5 19.5 16.0 91 0.9 CALM 0 0 0 0 1017.5 1017.3 0.0
15/12:00am 17.9 20.1 16.4 91 0.9 CALM 0 0 0 0 1017.7 1017.5 0.0
 
Date/Time
EST
Temp
°C
App
Temp
°C
Dew
Point
°C
Rel
Hum
%
Delta-T
°C
Wind Press
QNH
hPa
Press
MSL
hPa
Rain since
9am
mm
Dir  Spd
km/h
Gust
km/h
Spd
kts
Gust
kts
14/11:30pm 18.2 20.1 15.8 86 1.4 CALM 0 0 0 0 1018.0 1017.8 0.0
14/11:00pm 18.6 20.7 16.2 86 1.4 CALM 0 0 0 0 1018.2 1018.0 0.0
14/10:30pm 19.4 21.6 16.4 83 1.8 CALM 0 0 0 0 1018.4 1018.2 0.0
14/10:00pm 20.4 22.5 17.2 82 2.0 ENE 2 4 1 2 1018.5 1018.3 0.0
14/09:30pm 20.7 23.1 16.9 79 2.3 CALM 0 0 0 0 1018.7 1018.5 0.0
14/09:00pm 21.1 23.5 16.9 77 2.6 CALM 0 2 0 1 1018.5 1018.3 0.0
14/08:30pm 21.8 23.8 17.0 74 2.9 NE 2 6 1 3 1018.1 1017.9 0.0
14/08:00pm 22.2 23.9 17.1 73 3.1 NE 4 9 2 5 1017.8 1017.6 0.0
14/07:30pm 22.5 23.8 17.0 71 3.4 ENE 6 9 3 5 1017.7 1017.5 0.0
14/07:00pm 22.9 24.0 17.1 70 3.6 ENE 7 11 4 6 1017.5 1017.3 0.0
14/06:30pm 23.4 24.0 16.9 67 4.0 NE 9 19 5 10 1017.3 1017.1 0.0
14/06:00pm 24.0 24.7 17.0 65 4.3 ENE 9 17 5 9 1016.9 1016.7 0.0
14/05:30pm 25.0 25.4 17.2 62 4.9 ENE 11 17 6 9 1016.5 1016.3 0.0
14/05:00pm 25.6 25.9 17.0 59 5.3 ENE 11 19 6 10 1016.3 1016.1 0.0
14/04:30pm 26.1 25.7 17.2 58 5.6 ENE 15 24 8 13 1016.3 1016.1 0.0
14/04:00pm 27.1 27.7 17.8 56 5.9 NE 11 22 6 12 1016.0 1015.8 0.0
14/03:30pm 27.5 28.0 17.4 54 6.4 NNE 11 19 6 10 1016.0 1015.8 0.0
14/03:00pm 27.3 26.8 16.0 50 7.0 NNE 13 20 7 11 1015.7 1015.5 0.0
14/02:30pm 28.4 28.7 16.0 47 7.7 NE 9 19 5 10 1015.6 1015.4 0.0
14/02:00pm 28.6 28.7 16.5 48 7.5 NNE 11 24 6 13 1015.8 1015.6 0.0
14/01:30pm 28.9 29.3 15.4 44 8.3 NNE 7 15 4 8 1016.0 1015.8 0.0
14/01:00pm 29.0 29.1 14.0 39 9.0 NNE 6 13 3 7 1016.6 1016.4 0.0
14/12:30pm 28.3 27.9 13.0 39 9.0 NNE 7 15 4 8 1016.9 1016.7 0.0
14/12:00pm 28.9 28.8 13.9 39 9.0 NNW 7 17 4 9 1017.2 1017.0 0.0
14/11:30am 28.2 28.3 15.5 46 7.8 NW 9 19 5 10 1017.4 1017.2 0.0
14/11:00am 27.6 28.0 16.2 49 7.0 NE 9 19 5 10 1017.9 1017.7 0.0
14/10:30am 25.7 25.9 15.7 54 6.1 N 9 15 5 8 1018.3 1018.1 0.0
14/10:00am 25.0 25.4 16.4 59 5.3 NW 9 17 5 9 1018.6 1018.4 0.0
14/09:30am 24.8 25.5 15.7 57 5.5 N 6 11 3 6 1018.6 1018.4 0.0
14/09:00am 24.6 25.2 15.8 58 5.3 SW 7 13 4 7 1018.7 1018.5 0.0
14/08:30am 23.1 24.1 15.4 62 4.6 SW 4 6 2 3 1018.6 1018.4 0.0
14/08:00am 22.6 23.4 14.7 61 4.7 SW 4 6 2 3 1018.5 1018.3 0.0
14/07:30am 20.6 21.2 14.3 67 3.7 SSE 4 6 2 3 1018.6 1018.4 0.0
14/07:00am 17.5 17.7 13.2 76 2.4 SSE 4 6 2 3 1018.7 1018.5 0.0
14/06:30am 15.7 16.1 12.5 81 1.8 SSE 2 4 1 2 1018.4 1018.2 0.0
14/06:00am 14.9 15.1 11.9 82 1.6 SSE 2 4 1 2 1018.4 1018.2 0.0
14/05:30am 13.9 14.5 11.8 87 1.1 CALM 0 0 0 0 1018.0 1017.8 0.0
14/05:00am 12.8 12.9 11.4 91 0.7 SSE 2 4 1 2 1017.7 1017.5 0.0
14/04:30am 12.7 12.8 11.4 92 0.7 SSE 2 6 1 3 1017.4 1017.2 0.0
14/04:00am 12.6 12.3 11.5 93 0.6 SSE 4 7 2 4 1017.1 1016.9 0.0
14/03:30am 12.6 12.9 11.0 90 0.8 CALM 0 0 0 0 1016.8 1016.6 0.0
14/03:00am 13.0 13.2 11.9 93 0.6 SSE 2 4 1 2 1016.8 1016.6 0.0
14/02:30am 13.0 13.3 12.1 94 0.5 SSE 2 4 1 2 1016.9 1016.7 0.0
14/02:00am 12.8 13.2 11.4 91 0.7 CALM 0 0 0 0 1017.2 1017.0 0.0
14/01:30am 13.8 14.6 12.5 92 0.7 CALM 0 0 0 0 1017.4 1017.2 0.0
14/01:00am 13.1 13.6 11.7 91 0.7 CALM 0 0 0 0 1017.8 1017.6 0.0
14/12:30am 13.6 14.3 12.3 92 0.7 CALM 0 0 0 0 1018.0 1017.8 0.0
14/12:00am 13.3 13.8 11.7 90 0.9 CALM 0 0 0 0 1018.5 1018.3 0.0
 
Date/Time
EST
Temp
°C
App
Temp
°C
Dew
Point
°C
Rel
Hum
%
Delta-T
°C
Wind Press
QNH
hPa
Press
MSL
hPa
Rain since
9am
mm
Dir  Spd
km/h
Gust
km/h
Spd
kts
Gust
kts
13/11:30pm 14.9 15.9 13.3 90 0.9 CALM 0 0 0 0 1018.7 1018.5 0.0
13/11:00pm 14.0 14.6 11.9 87 1.1 CALM 0 0 0 0 1019.0 1018.8 0.0
13/10:30pm 16.1 16.7 13.2 83 1.6 NW 2 4 1 2 1019.2 1019.0 0.0
13/10:00pm 15.5 16.3 12.6 83 1.6 CALM 0 0 0 0 1019.4 1019.2 0.0
13/09:30pm 16.8 17.6 12.5 76 2.4 CALM 0 0 0 0 1019.3 1019.1 0.0
13/09:00pm 17.9 18.8 12.8 72 2.8 CALM 0 0 0 0 1019.3 1019.1 0.0
13/08:30pm 19.3 20.2 13.0 67 3.6 CALM 0 4 0 2 1019.2 1019.0 0.0
13/08:00pm 20.1 20.8 13.3 65 3.9 ENE 2 7 1 4 1018.8 1018.6 0.0

Other Formats:

Comma delimited format used in spreadsheet applications
http://www.bom.gov.au/fwo/IDQ60801/IDQ60801.95575.axf

JavaScript Object Notation format (JSON) in row-major order
http://www.bom.gov.au/fwo/IDQ60801/IDQ60801.95575.json